Terminal Aerodrome Forecast
Issued by NWS

Current Version | Previous Version | Graphics & Text | Print | Product List | Glossary On
Versions: 1 2 3 4 5 6 7 8 9 10 11 12 13 14 15 16 17 18 19 20 21 22 23 24 25
000
FTUS41 KRLX 142341
TAFCKB
TAF
KCKB 142341Z 1500/1524 31003KT 1SM -RA BR OVC004
     FM150200 32002KT 2SM -DZ BR OVC006
     FM150500 33002KT 2SM BR OVC005
     FM150800 36003KT 4SM BR OVC010
     FM151400 00000KT P6SM BKN035
     FM151700 05005KT P6SM BKN060=

USA.gov is the U.S. government's official web portal to all federal, state and local government web resources and services.